Terminal Aerodrome Forecast
Issued by NWS

Home | Current Version | Previous Version | Text Only | Print | Product List | Glossary On
Versions: 1 2 3 4 5 6 7 8 9 10 11 12 13 14
527
FTUS42 TJSJ 230536
TAFNCM
TAF
TNCM 230536Z 2306/2406 09008KT P6SM SCT018
     FM231200 12013KT P6SM VCSH FEW018 SCT022
     FM232200 09008KT P6SM FEW022=

USA.gov is the U.S. government's official web portal to all federal, state and local government web resources and services.